createdAt,value
2017-10-24T00:00:28.444Z,101410.37
2017-10-24T00:02:59.772Z,101409.52
2017-10-24T00:05:33.908Z,101415.74
2017-10-24T00:08:09.099Z,101419.19
2017-10-24T00:10:42.204Z,101419.02
2017-10-24T00:13:14.983Z,101413.56
2017-10-24T00:15:46.369Z,101418.70
2017-10-24T00:18:18.337Z,101416.49
2017-10-24T00:23:11.827Z,101418.48
2017-10-24T00:25:45.426Z,101424.19
2017-10-24T00:28:17.250Z,101423.32
2017-10-24T00:30:49.946Z,101427.77
2017-10-24T00:33:21.847Z,101421.61
2017-10-24T00:35:53.618Z,101425.48
2017-10-24T00:38:27.712Z,101426.87
2017-10-24T00:40:59.194Z,101421.55
2017-10-24T00:43:31.312Z,101422.84
2017-10-24T00:46:10.735Z,101427.25
2017-10-24T00:48:43.233Z,101425.12
2017-10-24T00:51:15.271Z,101426.80
2017-10-24T00:53:46.693Z,101426.47
2017-10-24T00:56:18.576Z,101424.34
2017-10-24T00:58:50.496Z,101427.78
2017-10-24T01:01:24.159Z,101429.10
2017-10-24T01:03:55.475Z,101421.65
2017-10-24T01:06:29.784Z,101424.00
2017-10-24T01:09:01.189Z,101422.61
2017-10-24T01:11:36.866Z,101428.77
2017-10-24T01:14:10.584Z,101419.11
2017-10-24T01:16:42.316Z,101416.45
2017-10-24T01:19:14.131Z,101426.72
2017-10-24T01:21:46.538Z,101421.11
2017-10-24T01:24:19.764Z,101423.79
2017-10-24T01:26:52.242Z,101422.22
2017-10-24T01:29:24.606Z,101419.30
2017-10-24T01:31:57.863Z,101423.69
2017-10-24T01:34:39.390Z,101422.34
2017-10-24T01:37:15.609Z,101422.34
2017-10-24T01:39:47.487Z,101421.69
2017-10-24T01:42:20.613Z,101418.14
2017-10-24T01:44:52.514Z,101425.64
2017-10-24T01:47:27.073Z,101420.95
2017-10-24T01:49:58.781Z,101424.30
2017-10-24T01:52:33.911Z,101439.31
2017-10-24T01:55:09.358Z,101431.31
2017-10-24T01:57:42.945Z,101432.61
2017-10-24T02:00:15.973Z,101435.25
2017-10-24T02:02:47.790Z,101437.92
2017-10-24T02:05:20.661Z,101426.05
2017-10-24T02:07:54.771Z,101431.44
2017-10-24T02:10:26.300Z,101436.83
2017-10-24T02:12:58.361Z,101434.67
2017-10-24T02:15:29.762Z,101434.75
2017-10-24T02:18:03.371Z,101435.73
2017-10-24T02:20:35.473Z,101432.77
2017-10-24T02:23:07.354Z,101420.44
2017-10-24T02:25:40.280Z,101422.39
2017-10-24T02:28:12.722Z,101414.23
2017-10-24T02:30:47.126Z,101414.23
2017-10-24T02:33:22.299Z,101408.98
2017-10-24T02:35:55.689Z,101416.89
2017-10-24T02:38:30.973Z,101417.66
2017-10-24T02:41:07.448Z,101416.36
2017-10-24T02:43:40.738Z,101411.52
2017-10-24T02:46:17.335Z,101418.61
2017-10-24T02:48:50.177Z,101420.38
2017-10-24T02:51:23.035Z,101424.23
2017-10-24T02:53:55.236Z,101423.34
2017-10-24T02:56:26.913Z,101419.94
2017-10-24T02:59:00.415Z,101420.91
2017-10-24T03:01:33.790Z,101420.55
2017-10-24T03:04:10.165Z,101420.05
2017-10-24T03:06:42.990Z,101425.30
2017-10-24T03:09:15.948Z,101424.94
2017-10-24T03:11:49.517Z,101425.30
2017-10-24T03:14:23.297Z,101421.43
2017-10-24T03:16:55.221Z,101429.91
2017-10-24T03:19:26.862Z,101434.86
2017-10-24T03:21:58.623Z,101429.64
2017-10-24T03:24:34.821Z,101426.43
2017-10-24T03:27:07.147Z,101431.31
2017-10-24T03:29:40.211Z,101433.42
2017-10-24T03:32:11.847Z,101433.52
2017-10-24T03:34:43.784Z,101435.17
2017-10-24T03:37:15.254Z,101447.92
2017-10-24T03:39:49.026Z,101441.23
2017-10-24T03:42:20.638Z,101449.75
2017-10-24T03:44:52.511Z,101452.91
2017-10-24T03:47:27.874Z,101453.91
2017-10-24T03:49:59.523Z,101459.96
2017-10-24T03:52:32.700Z,101459.66
2017-10-24T03:55:12.377Z,101452.56
2017-10-24T03:57:44.305Z,101451.45
2017-10-24T04:00:16.837Z,101445.66
2017-10-24T04:02:52.264Z,101446.45
2017-10-24T04:05:23.621Z,101443.73
2017-10-24T04:07:58.653Z,101442.73
2017-10-24T04:10:31.599Z,101448.88
2017-10-24T04:13:04.372Z,101453.64
2017-10-24T04:15:36.830Z,101451.96
2017-10-24T04:18:08.589Z,101448.38
2017-10-24T04:20:41.398Z,101449.33
2017-10-24T04:23:16.210Z,101447.67
2017-10-24T04:25:52.537Z,101450.67
2017-10-24T04:28:25.648Z,101447.66
2017-10-24T04:30:57.858Z,101452.30
2017-10-24T04:33:31.619Z,101451.33
2017-10-24T04:36:07.075Z,101447.30
2017-10-24T04:38:40.810Z,101452.06
2017-10-24T04:41:12.771Z,101453.08
2017-10-24T04:43:48.109Z,101453.81
2017-10-24T04:46:22.536Z,101453.38
2017-10-24T04:48:56.690Z,101460.37
2017-10-24T04:51:30.563Z,101457.02
2017-10-24T04:54:06.257Z,101458.81
2017-10-24T04:56:37.869Z,101456.97
2017-10-24T04:59:10.910Z,101456.69
2017-10-24T05:01:43.290Z,101453.69
2017-10-24T05:04:15.062Z,101458.53
2017-10-24T05:06:47.460Z,101451.06
2017-10-24T05:09:20.011Z,101454.95
2017-10-24T05:11:53.206Z,101454.05
2017-10-24T05:14:26.084Z,101456.11
2017-10-24T05:16:59.473Z,101463.46
2017-10-24T05:19:31.245Z,101457.29
2017-10-24T05:22:06.373Z,101454.31
2017-10-24T05:24:37.772Z,101449.92
2017-10-24T05:27:10.885Z,101454.30
2017-10-24T05:29:43.639Z,101450.11
2017-10-24T05:32:18.724Z,101450.91
2017-10-24T05:34:50.144Z,101452.64
2017-10-24T05:37:24.630Z,101451.69
2017-10-24T05:39:59.672Z,101457.39
2017-10-24T05:42:33.649Z,101465.33
2017-10-24T05:45:08.223Z,101465.23
2017-10-24T05:47:42.192Z,101460.36
2017-10-24T05:50:20.994Z,101463.80
2017-10-24T05:52:59.038Z,101457.05
2017-10-24T05:55:33.053Z,101457.91
2017-10-24T05:58:10.011Z,101461.55
2017-10-24T06:00:42.089Z,101464.76
2017-10-24T06:03:18.888Z,101468.13
2017-10-24T06:05:55.078Z,101478.56
2017-10-24T06:08:29.277Z,101478.72
2017-10-24T06:11:03.396Z,101482.95
2017-10-24T06:13:38.493Z,101474.58
2017-10-24T06:16:11.275Z,101484.72
2017-10-24T06:18:44.225Z,101476.88
2017-10-24T06:21:18.160Z,101475.48
2017-10-24T06:23:50.155Z,101481.99
2017-10-24T06:26:21.820Z,101487.27
2017-10-24T06:28:55.851Z,101487.77
2017-10-24T06:31:52.077Z,101481.99
2017-10-24T06:34:49.316Z,101480.52
2017-10-24T06:38:28.604Z,101476.45
2017-10-24T06:44:39.802Z,101479.11
2017-10-24T06:59:28.101Z,101506.42
2017-10-24T07:01:59.438Z,101500.34
2017-10-24T07:04:30.876Z,101502.78
2017-10-24T07:07:02.832Z,101506.28
2017-10-24T07:09:34.226Z,101507.59
2017-10-24T07:12:07.087Z,101512.61
2017-10-24T07:14:38.557Z,101517.30
2017-10-24T07:17:09.952Z,101513.30
2017-10-24T07:19:41.350Z,101514.66
2017-10-24T07:22:13.513Z,101515.70
2017-10-24T07:24:44.965Z,101521.30
2017-10-24T07:27:17.405Z,101514.98
2017-10-24T07:29:49.072Z,101519.20
2017-10-24T07:32:21.456Z,101520.73
2017-10-24T07:34:53.762Z,101522.79
2017-10-24T07:37:25.456Z,101532.27
2017-10-24T07:39:56.835Z,101531.08
2017-10-24T07:42:28.232Z,101520.09
2017-10-24T07:44:59.963Z,101517.38
2017-10-24T07:47:31.333Z,101518.19
2017-10-24T07:50:04.255Z,101532.55
2017-10-24T07:52:36.132Z,101538.14
2017-10-24T07:55:07.461Z,101535.19
2017-10-24T07:57:38.786Z,101535.80
2017-10-24T08:00:11.263Z,101544.38
2017-10-24T08:02:43.045Z,101533.70
2017-10-24T08:05:14.700Z,101538.12
2017-10-24T08:07:46.055Z,101541.77
2017-10-24T08:10:19.252Z,101539.94
2017-10-24T08:12:50.683Z,101541.97
2017-10-24T08:15:22.127Z,101544.38
2017-10-24T08:17:53.823Z,101543.39
2017-10-24T08:20:25.233Z,101545.34
2017-10-24T08:22:56.684Z,101538.34
2017-10-24T08:25:28.328Z,101531.31
2017-10-24T08:27:59.657Z,101523.52
2017-10-24T08:30:31.007Z,101522.70
2017-10-24T08:33:04.442Z,101535.12
2017-10-24T08:35:35.876Z,101547.86
2017-10-24T08:38:08.357Z,101545.96
2017-10-24T08:40:39.969Z,101545.47
2017-10-24T08:43:11.455Z,101547.76
2017-10-24T09:08:21.096Z,101546.32
2017-10-24T09:11:01.655Z,101542.06
2017-10-24T09:13:38.576Z,101547.62
2017-10-24T09:29:04.057Z,101546.77
2017-10-24T09:31:36.744Z,101530.75
2017-10-24T09:34:08.638Z,101528.83
2017-10-24T09:36:45.240Z,101535.79
2017-10-24T09:39:16.576Z,101533.07
2017-10-24T09:41:48.221Z,101523.44
2017-10-24T09:44:19.667Z,101528.43
2017-10-24T09:46:51.035Z,101530.52
2017-10-24T09:49:22.764Z,101522.17
2017-10-24T09:51:54.114Z,101524.30
2017-10-24T09:54:25.549Z,101524.42
2017-10-24T09:56:57.362Z,101523.79
2017-10-24T09:59:36.827Z,101526.77
2017-10-24T10:02:09.186Z,101526.89
2017-10-24T10:04:40.542Z,101523.48
2017-10-24T10:07:12.071Z,101524.22
2017-10-24T10:09:43.749Z,101516.73
2017-10-24T10:12:16.938Z,101516.48
2017-10-24T10:14:48.544Z,101509.84
2017-10-24T10:17:19.888Z,101507.47
2017-10-24T10:19:51.240Z,101497.42
2017-10-24T10:22:23.192Z,101499.75
2017-10-24T10:24:54.585Z,101494.33
2017-10-24T10:27:26.026Z,101494.05
2017-10-24T10:29:57.757Z,101492.66
2017-10-24T10:32:29.112Z,101491.94
2017-10-24T10:35:01.064Z,101487.75
2017-10-24T10:37:32.431Z,101483.27
2017-10-24T10:40:05.683Z,101480.68
2017-10-24T10:42:37.365Z,101485.46
2017-10-24T10:45:08.692Z,101482.27
2017-10-24T10:47:40.186Z,101478.20
2017-10-24T10:50:12.350Z,101471.53
2017-10-24T10:52:43.708Z,101469.61
2017-10-24T10:55:16.157Z,101464.13
2017-10-24T10:57:47.543Z,101466.97
2017-10-24T11:00:21.066Z,101473.66
2017-10-24T11:02:52.781Z,101476.16
2017-10-24T11:05:24.595Z,101479.00
2017-10-24T11:07:56.291Z,101481.82
2017-10-24T11:10:32.104Z,101480.95
2017-10-24T11:13:03.732Z,101475.95
2017-10-24T11:15:35.167Z,101480.23
2017-10-24T11:18:07.424Z,101476.69
2017-10-24T11:20:39.125Z,101475.84
2017-10-24T11:23:10.494Z,101474.10
2017-10-24T11:25:41.825Z,101485.43
2017-10-24T11:28:13.558Z,101476.59
2017-10-24T11:30:45.936Z,101476.75
2017-10-24T11:33:18.937Z,101466.59
2017-10-24T11:35:51.091Z,101471.67
2017-10-24T11:38:23.778Z,101469.89
2017-10-24T11:40:55.145Z,101473.31
2017-10-24T11:43:26.860Z,101477.44
2017-10-24T11:45:58.219Z,101477.20
2017-10-24T11:48:29.902Z,101475.08
2017-10-24T11:51:01.463Z,101472.27
2017-10-24T11:53:32.987Z,101469.33
2017-10-24T11:56:05.517Z,101464.81
2017-10-24T11:58:36.929Z,101470.06
2017-10-24T12:01:09.373Z,101466.48
2017-10-24T12:03:40.714Z,101470.52
2017-10-24T12:06:15.467Z,101461.01
2017-10-24T12:08:46.828Z,101463.61
2017-10-24T12:11:19.371Z,101458.88
2017-10-24T12:13:51.280Z,101457.94
2017-10-24T12:16:22.783Z,101452.74
2017-10-24T12:18:54.278Z,101448.19
2017-10-24T12:21:25.728Z,101440.48
2017-10-24T12:23:58.379Z,101433.98
2017-10-24T12:26:29.755Z,101439.08
2017-10-24T12:29:01.205Z,101432.91
2017-10-24T12:31:33.412Z,101428.98
2017-10-24T12:34:06.938Z,101426.20
2017-10-24T12:36:38.477Z,101422.87
2017-10-24T12:39:10.358Z,101420.92
2017-10-24T12:41:41.878Z,101422.36
2017-10-24T12:44:16.754Z,101427.27
2017-10-24T12:46:48.220Z,101421.25
2017-10-24T12:49:21.054Z,101417.28
2017-10-24T12:51:53.007Z,101420.88
2017-10-24T12:54:27.539Z,101428.23
2017-10-24T12:56:59.062Z,101426.70
2017-10-24T12:59:31.351Z,101424.41
2017-10-24T13:02:04.655Z,101432.84
2017-10-24T13:04:37.176Z,101433.05
2017-10-24T13:07:08.590Z,101426.56
2017-10-24T13:09:42.089Z,101425.59
2017-10-24T13:14:51.979Z,101428.31
2017-10-24T13:17:23.364Z,101428.28
2017-10-24T13:19:54.743Z,101422.19
2017-10-24T13:22:26.325Z,101421.47
2017-10-24T13:24:57.714Z,101421.61
2017-10-24T13:27:29.141Z,101412.28
2017-10-24T13:30:00.566Z,101409.48
2017-10-24T13:32:32.331Z,101407.19
2017-10-24T13:35:04.155Z,101407.30
2017-10-24T13:37:35.474Z,101398.44
2017-10-24T13:40:14.100Z,101402.84
2017-10-24T13:42:45.397Z,101401.62
2017-10-24T13:45:17.088Z,101403.88
2017-10-24T13:47:48.787Z,101402.27
2017-10-24T13:50:22.182Z,101398.14
2017-10-24T13:52:54.244Z,101396.10
2017-10-24T13:55:26.518Z,101400.19
2017-10-24T13:57:57.827Z,101398.54
2017-10-24T14:00:30.971Z,101402.52
2017-10-24T14:03:02.917Z,101407.98
2017-10-24T14:10:12.992Z,101405.53
2017-10-24T14:12:44.613Z,101411.48
2017-10-24T14:15:17.596Z,101410.63
2017-10-24T14:17:50.761Z,101407.28
2017-10-24T14:20:22.419Z,101409.17
2017-10-24T14:22:53.749Z,101403.81
2017-10-24T14:25:26.194Z,101414.75
2017-10-24T14:27:58.143Z,101417.05
2017-10-24T14:30:30.306Z,101413.53
2017-10-24T14:33:02.180Z,101411.05
2017-10-24T14:35:34.028Z,101408.14
2017-10-24T14:38:07.357Z,101417.43
2017-10-24T14:40:39.061Z,101417.93
2017-10-24T14:43:10.707Z,101413.66
2017-10-24T14:45:42.053Z,101412.77
2017-10-24T14:48:13.652Z,101417.63
2017-10-24T14:50:44.953Z,101413.04
2017-10-24T14:53:16.430Z,101415.33
2017-10-24T14:55:48.059Z,101421.17
2017-10-24T14:58:20.267Z,101411.89
2017-10-24T15:00:51.760Z,101410.16
2017-10-24T15:03:24.286Z,101407.81
2017-10-24T15:05:57.259Z,101405.73
2017-10-24T15:08:30.674Z,101409.31
2017-10-24T15:11:03.469Z,101413.69
2017-10-24T15:13:34.902Z,101415.16
2017-10-24T15:16:08.513Z,101413.30
2017-10-24T15:18:39.823Z,101413.00
2017-10-24T15:21:11.480Z,101413.00
2017-10-24T15:23:43.229Z,101418.51
2017-10-24T15:26:17.039Z,101413.48
2017-10-24T15:28:48.692Z,101417.20
2017-10-24T15:31:21.109Z,101418.66
2017-10-24T15:33:52.404Z,101413.52
2017-10-24T15:36:23.930Z,101414.09
2017-10-24T15:38:55.290Z,101404.70
2017-10-24T15:41:26.689Z,101404.90
2017-10-24T15:43:58.308Z,101407.59
2017-10-24T15:46:30.887Z,101397.05
2017-10-24T15:49:02.962Z,101396.29
2017-10-24T15:51:34.597Z,101396.46
2017-10-24T15:56:43.533Z,101408.33
2017-10-24T15:59:16.591Z,101409.89
2017-10-24T16:01:48.607Z,101413.73
2017-10-24T16:04:20.910Z,101417.91
2017-10-24T16:06:52.267Z,101413.67
2017-10-24T16:09:25.883Z,101420.23
2017-10-24T16:11:57.210Z,101414.44
2017-10-24T16:14:29.246Z,101416.32
2017-10-24T16:17:00.631Z,101421.72
2017-10-24T16:19:32.951Z,101424.97
2017-10-24T16:22:08.208Z,101416.72
2017-10-24T16:24:39.549Z,101419.03
2017-10-24T16:27:10.957Z,101419.50
2017-10-24T16:32:22.146Z,101416.98
2017-10-24T16:34:53.456Z,101412.52
2017-10-24T16:37:25.854Z,101408.53
2017-10-24T16:39:58.132Z,101410.78
2017-10-24T16:42:29.823Z,101413.97
2017-10-24T16:45:01.898Z,101417.88
2017-10-24T16:47:33.755Z,101413.01
2017-10-24T16:50:06.145Z,101420.48
2017-10-24T16:52:37.746Z,101421.35
2017-10-24T16:55:09.309Z,101424.03
2017-10-24T16:57:41.685Z,101431.55
2017-10-24T17:00:13.390Z,101423.53
2017-10-24T17:02:45.110Z,101428.41
2017-10-24T17:05:18.004Z,101439.06
2017-10-24T17:07:49.371Z,101435.59
2017-10-24T17:10:22.511Z,101437.74
2017-10-24T17:12:53.932Z,101446.32
2017-10-24T17:15:25.301Z,101448.01
2017-10-24T17:17:57.006Z,101449.73
2017-10-24T17:20:28.871Z,101456.39
2017-10-24T17:23:00.824Z,101452.41
2017-10-24T17:25:32.605Z,101447.21
2017-10-24T17:28:05.339Z,101454.39
2017-10-24T17:30:37.131Z,101449.56
2017-10-24T17:33:09.562Z,101451.34
2017-10-24T17:35:41.731Z,101454.83
2017-10-24T17:38:13.625Z,101456.64
2017-10-24T17:40:45.191Z,101457.54
2017-10-24T17:43:17.099Z,101465.12
2017-10-24T17:45:48.661Z,101455.42
2017-10-24T17:48:21.311Z,101455.52
2017-10-24T17:50:53.076Z,101452.90
2017-10-24T17:53:25.484Z,101453.00
2017-10-24T17:55:56.929Z,101452.69
2017-10-24T17:58:28.579Z,101449.67
2017-10-24T18:01:00.871Z,101452.36
2017-10-24T18:03:33.597Z,101453.91
2017-10-24T18:06:13.049Z,101455.27
2017-10-24T18:08:44.390Z,101444.30
2017-10-24T18:14:30.932Z,101440.71
2017-10-24T18:17:04.743Z,101440.28
2017-10-24T18:19:37.400Z,101443.88
2017-10-24T18:22:09.284Z,101447.13
2017-10-24T18:24:41.199Z,101447.34
2017-10-24T18:27:13.447Z,101445.75
2017-10-24T18:29:44.892Z,101445.34
2017-10-24T18:32:16.941Z,101447.04
2017-10-24T18:34:49.282Z,101440.52
2017-10-24T18:37:20.891Z,101445.34
2017-10-24T18:39:52.329Z,101439.28
2017-10-24T18:42:24.879Z,101435.78
2017-10-24T18:44:57.008Z,101430.61
2017-10-24T18:47:28.619Z,101425.28
2017-10-24T18:50:01.196Z,101421.22
2017-10-24T18:52:34.600Z,101429.31
2017-10-24T18:55:06.119Z,101424.12
2017-10-24T18:57:37.534Z,101431.16
2017-10-24T19:02:39.574Z,101423.32
2017-10-24T19:05:11.094Z,101424.58
2017-10-24T19:07:43.188Z,101430.43
2017-10-24T19:10:15.303Z,101413.63
2017-10-24T19:12:47.190Z,101414.42
2017-10-24T19:15:18.852Z,101410.08
2017-10-24T19:17:50.757Z,101410.11
2017-10-24T19:20:22.692Z,101412.52
2017-10-24T19:22:56.795Z,101409.81
2017-10-24T19:25:29.583Z,101410.97
2017-10-24T19:28:02.437Z,101407.06
2017-10-24T19:30:35.541Z,101404.48
2017-10-24T19:33:13.137Z,101404.91
2017-10-24T19:35:44.691Z,101409.68
2017-10-24T19:38:16.539Z,101408.95
2017-10-24T19:40:48.901Z,101416.19
2017-10-24T19:43:25.643Z,101421.48
2017-10-24T19:45:57.696Z,101417.41
2017-10-24T19:48:29.349Z,101412.45
2017-10-24T19:51:00.715Z,101415.44
2017-10-24T19:53:40.364Z,101407.44
2017-10-24T19:56:14.115Z,101400.75
2017-10-24T20:02:07.183Z,101405.68
2017-10-24T20:04:39.588Z,101409.98
2017-10-24T20:07:13.941Z,101406.05
2017-10-24T20:09:46.856Z,101408.39
2017-10-24T20:12:23.257Z,101411.47
2017-10-24T20:14:54.988Z,101405.28
2017-10-24T20:17:28.356Z,101415.77
2017-10-24T20:20:05.227Z,101407.00
2017-10-24T20:22:38.128Z,101412.30
2017-10-24T20:25:10.847Z,101415.84
2017-10-24T20:27:43.130Z,101418.09
2017-10-24T20:30:15.147Z,101416.77
2017-10-24T20:32:46.552Z,101409.25
2017-10-24T20:35:19.951Z,101412.33
2017-10-24T20:37:52.352Z,101415.01
2017-10-24T20:40:24.088Z,101415.94
2017-10-24T20:42:55.555Z,101407.56
2017-10-24T20:45:29.596Z,101407.44
2017-10-24T20:48:03.430Z,101403.92
2017-10-24T20:50:37.221Z,101404.27
2017-10-24T20:53:08.665Z,101408.66
2017-10-24T20:55:41.272Z,101408.20
2017-10-24T20:58:17.183Z,101409.52
2017-10-24T21:00:49.944Z,101413.06
2017-10-24T21:03:24.819Z,101427.06
2017-10-24T21:05:57.268Z,101421.25
2017-10-24T21:08:28.962Z,101418.01
2017-10-24T21:11:02.587Z,101418.19
2017-10-24T21:13:34.507Z,101419.51
2017-10-24T21:16:10.988Z,101414.55
2017-10-24T21:18:42.729Z,101414.92
2017-10-24T21:21:16.974Z,101411.38
2017-10-24T21:23:49.957Z,101406.48
2017-10-24T21:26:23.010Z,101406.97
2017-10-24T21:28:56.332Z,101402.91
2017-10-24T21:31:27.747Z,101410.91
2017-10-24T21:37:05.068Z,101412.83
2017-10-24T21:39:36.486Z,101411.50
2017-10-24T21:42:07.824Z,101402.70
2017-10-24T21:44:39.447Z,101409.87
2017-10-24T21:47:10.990Z,101414.41
2017-10-24T21:49:42.341Z,101408.98
2017-10-24T21:52:13.826Z,101406.67
2017-10-24T21:54:45.664Z,101408.52
2017-10-24T21:57:17.415Z,101413.02
2017-10-24T21:59:48.752Z,101410.30
2017-10-24T22:02:20.836Z,101415.14
2017-10-24T22:04:52.155Z,101412.19
2017-10-24T22:07:25.094Z,101412.72
2017-10-24T22:09:56.680Z,101408.34
2017-10-24T22:12:28.017Z,101409.30
2017-10-24T22:14:59.347Z,101407.22
2017-10-24T22:17:32.252Z,101404.13
2017-10-24T22:20:05.738Z,101401.36
2017-10-24T22:22:37.369Z,101403.48
2017-10-24T22:25:08.772Z,101401.70
2017-10-24T22:27:40.186Z,101399.84
2017-10-24T22:30:12.011Z,101401.79
2017-10-24T22:32:43.336Z,101391.20
2017-10-24T22:35:14.664Z,101386.83
2017-10-24T22:37:46.414Z,101391.63
2017-10-24T22:40:17.744Z,101396.86
2017-10-24T22:42:49.361Z,101395.08
2017-10-24T22:45:21.045Z,101394.09
2017-10-24T22:47:52.536Z,101393.66
2017-10-24T22:50:25.079Z,101392.30
2017-10-24T22:52:56.565Z,101392.80
2017-10-24T22:55:27.896Z,101392.89
2017-10-24T22:57:59.568Z,101392.95
2017-10-24T23:00:30.913Z,101385.84
2017-10-24T23:03:02.661Z,101381.87
2017-10-24T23:05:34.338Z,101377.10
2017-10-24T23:08:06.329Z,101374.48
2017-10-24T23:10:37.727Z,101379.32
2017-10-24T23:13:09.485Z,101380.55
2017-10-24T23:15:40.985Z,101379.28
2017-10-24T23:18:12.611Z,101377.13
2017-10-24T23:20:44.112Z,101368.86
2017-10-24T23:23:15.648Z,101370.18
2017-10-24T23:25:47.407Z,101372.80
2017-10-24T23:28:18.728Z,101373.29
2017-10-24T23:30:50.091Z,101367.50
2017-10-24T23:33:21.881Z,101364.02
2017-10-24T23:35:53.215Z,101368.95
2017-10-24T23:38:25.400Z,101368.09
2017-10-24T23:40:57.091Z,101374.58
2017-10-24T23:43:28.557Z,101372.59
2017-10-24T23:46:00.324Z,101374.34
2017-10-24T23:48:31.870Z,101361.48
2017-10-24T23:51:03.359Z,101359.69
2017-10-24T23:53:35.022Z,101359.81
2017-10-24T23:56:06.332Z,101357.73
2017-10-24T23:58:37.669Z,101359.70
